createdAt,value
2022-10-02T00:02:30.119Z,91.56
2022-10-02T00:07:40.274Z,91.33
2022-10-02T00:12:44.399Z,91.54
2022-10-02T00:17:49.688Z,91.67
2022-10-02T00:22:59.469Z,91.86
2022-10-02T00:28:06.811Z,92.38
2022-10-02T00:33:29.960Z,93.36
2022-10-02T00:38:53.444Z,93.80
2022-10-02T00:44:14.813Z,94.49
2022-10-02T00:49:25.431Z,95.11
2022-10-02T00:54:48.947Z,95.62
2022-10-02T01:00:14.493Z,95.92
2022-10-02T01:05:16.438Z,95.88
2022-10-02T01:10:19.207Z,96.39
2022-10-02T01:15:22.345Z,96.89
2022-10-02T01:20:46.568Z,97.13
2022-10-02T01:25:48.500Z,97.34
2022-10-02T01:30:53.819Z,97.41
2022-10-02T01:35:55.898Z,97.26
2022-10-02T01:40:57.566Z,97.33
2022-10-02T01:46:24.995Z,97.65
2022-10-02T01:51:33.853Z,97.62
2022-10-02T01:56:54.083Z,97.72
2022-10-02T02:02:09.805Z,97.91
2022-10-02T02:07:19.086Z,97.70
2022-10-02T02:12:33.959Z,97.63
2022-10-02T02:17:50.210Z,97.67
2022-10-02T02:22:53.958Z,97.46
2022-10-02T02:28:03.973Z,97.52
2022-10-02T02:33:11.641Z,97.23
2022-10-02T02:38:23.100Z,96.93
2022-10-02T02:43:30.269Z,96.66
2022-10-02T02:48:50.700Z,96.77
2022-10-02T02:54:17.354Z,96.67
2022-10-02T02:59:23.614Z,96.48
2022-10-02T03:04:25.470Z,96.72
2022-10-02T03:09:29.807Z,96.69
2022-10-02T03:15:04.838Z,97.70
2022-10-02T03:20:36.637Z,98.89
2022-10-02T03:26:00.098Z,100.00
2022-10-02T03:31:02.499Z,100.00
2022-10-02T03:36:05.614Z,100.00
2022-10-02T03:41:07.747Z,100.00
2022-10-02T03:46:10.746Z,100.00
2022-10-02T03:51:12.507Z,100.00
2022-10-02T03:56:40.458Z,100.00
2022-10-02T04:01:49.214Z,100.00
2022-10-02T04:06:56.901Z,100.00
2022-10-02T04:12:04.065Z,100.00
2022-10-02T04:17:11.437Z,100.00
2022-10-02T04:22:31.225Z,100.00
2022-10-02T04:27:48.231Z,100.00
2022-10-02T04:32:50.635Z,100.00
2022-10-02T04:38:19.056Z,99.74
2022-10-02T04:44:03.605Z,99.65
2022-10-02T04:49:32.337Z,99.85
2022-10-02T04:54:46.154Z,99.31
2022-10-02T05:00:01.937Z,99.23
2022-10-02T05:05:19.678Z,99.32
2022-10-02T05:10:33.421Z,99.14
2022-10-02T05:16:12.452Z,99.20
2022-10-02T05:21:17.211Z,99.53
2022-10-02T05:26:37.527Z,100.00
2022-10-02T05:32:05.584Z,100.00
2022-10-02T05:37:24.829Z,100.00
2022-10-02T05:42:45.282Z,100.00
2022-10-02T05:47:49.617Z,100.00
2022-10-02T05:53:10.716Z,100.00
2022-10-02T05:58:34.745Z,100.00
2022-10-02T06:03:55.779Z,100.00
2022-10-02T06:09:19.979Z,100.00
2022-10-02T06:14:27.491Z,100.00
2022-10-02T06:19:38.988Z,100.00
2022-10-02T06:25:06.636Z,100.00
2022-10-02T06:30:16.121Z,100.00
2022-10-02T06:35:34.390Z,100.00
2022-10-02T06:40:51.961Z,100.00
2022-10-02T06:46:09.803Z,100.00
2022-10-02T06:51:53.975Z,100.00
2022-10-02T06:57:28.658Z,100.00
2022-10-02T07:02:52.826Z,100.00
2022-10-02T07:08:45.437Z,100.00
2022-10-02T07:13:55.916Z,100.00
2022-10-02T07:19:03.443Z,100.00
2022-10-02T07:24:20.426Z,100.00
2022-10-02T07:29:38.082Z,100.00
2022-10-02T07:35:36.250Z,100.00
2022-10-02T07:41:02.319Z,100.00
2022-10-02T07:46:34.447Z,100.00
2022-10-02T07:51:48.540Z,100.00
2022-10-02T07:56:57.077Z,100.00
2022-10-02T08:01:59.985Z,100.00
2022-10-02T08:07:03.880Z,100.00
2022-10-02T08:12:20.621Z,100.00
2022-10-02T08:17:28.328Z,99.42
2022-10-02T08:22:42.955Z,98.50
2022-10-02T08:28:04.698Z,97.90
2022-10-02T08:33:19.675Z,97.00
2022-10-02T08:38:42.477Z,97.64
2022-10-02T08:44:06.363Z,97.92
2022-10-02T08:49:45.516Z,97.88
2022-10-02T08:55:19.029Z,98.29
2022-10-02T09:00:49.282Z,98.31
2022-10-02T09:06:12.910Z,98.10
2022-10-02T09:11:39.641Z,98.41
2022-10-02T09:16:54.665Z,99.02
2022-10-02T09:22:05.972Z,99.49
2022-10-02T09:27:20.368Z,99.77
2022-10-02T09:32:43.340Z,100.00
2022-10-02T09:37:48.348Z,100.00
2022-10-02T09:42:58.167Z,100.00
2022-10-02T09:48:04.947Z,100.00
2022-10-02T09:53:40.081Z,100.00
2022-10-02T09:58:58.138Z,100.00
2022-10-02T10:04:18.921Z,100.00
2022-10-02T10:09:43.951Z,100.00
2022-10-02T10:14:52.744Z,100.00
2022-10-02T10:20:41.233Z,100.00
2022-10-02T10:26:09.685Z,100.00
2022-10-02T10:31:33.211Z,100.00
2022-10-02T10:37:18.649Z,100.00
2022-10-02T10:43:07.814Z,100.00
2022-10-02T10:48:49.739Z,100.00
2022-10-02T10:54:08.567Z,100.00
2022-10-02T10:59:43.287Z,100.00
2022-10-02T11:05:06.705Z,100.00
2022-10-02T11:10:27.702Z,100.00
2022-10-02T11:15:48.049Z,100.00
2022-10-02T11:21:31.201Z,100.00
2022-10-02T11:26:32.861Z,100.00
2022-10-02T11:31:53.800Z,100.00
2022-10-02T11:37:26.778Z,100.00
2022-10-02T11:42:37.775Z,100.00
2022-10-02T11:47:55.074Z,100.00
2022-10-02T11:53:16.092Z,100.00
2022-10-02T11:58:53.333Z,100.00
2022-10-02T12:03:58.427Z,100.00
2022-10-02T12:09:14.106Z,100.00
2022-10-02T12:14:47.267Z,100.00
2022-10-02T12:20:55.719Z,100.00
2022-10-02T12:26:38.108Z,100.00
2022-10-02T12:32:08.118Z,100.00
2022-10-02T12:37:17.662Z,100.00
2022-10-02T12:43:01.864Z,100.00
2022-10-02T12:48:45.721Z,100.00
2022-10-02T12:54:07.547Z,100.00
2022-10-02T12:59:15.090Z,100.00
2022-10-02T13:04:41.793Z,100.00
2022-10-02T13:10:08.506Z,100.00
2022-10-02T13:15:37.963Z,100.00
2022-10-02T13:21:09.079Z,100.00
2022-10-02T13:26:42.486Z,100.00
2022-10-02T13:32:09.182Z,100.00
2022-10-02T13:37:38.171Z,100.00
2022-10-02T13:43:05.930Z,100.00
2022-10-02T13:48:18.105Z,100.00
2022-10-02T13:53:39.824Z,100.00
2022-10-02T13:58:54.643Z,100.00
2022-10-02T14:04:05.354Z,100.00
2022-10-02T14:10:01.822Z,100.00
2022-10-02T14:15:08.713Z,100.00
2022-10-02T14:20:18.665Z,100.00
2022-10-02T14:25:35.709Z,100.00
2022-10-02T14:30:49.666Z,100.00
2022-10-02T14:36:13.405Z,100.00
2022-10-02T15:18:11.688Z,100.00
2022-10-02T15:23:40.328Z,100.00
2022-10-02T15:29:03.989Z,100.00
2022-10-02T15:34:24.291Z,100.00
2022-10-02T15:39:43.060Z,100.00
2022-10-02T15:45:13.629Z,100.00
2022-10-02T15:50:32.245Z,100.00
2022-10-02T15:55:44.487Z,100.00
2022-10-02T16:01:01.535Z,100.00
2022-10-02T16:06:11.382Z,100.00
2022-10-02T16:11:13.048Z,100.00
2022-10-02T16:16:23.160Z,100.00
2022-10-02T16:21:43.718Z,100.00
2022-10-02T16:27:13.525Z,100.00
2022-10-02T16:32:27.352Z,100.00
2022-10-02T16:37:45.223Z,100.00
2022-10-02T16:43:12.987Z,100.00
2022-10-02T16:48:21.088Z,100.00
2022-10-02T16:53:28.939Z,100.00
2022-10-02T16:58:43.088Z,100.00
2022-10-02T17:03:54.462Z,100.00
2022-10-02T17:09:07.701Z,100.00
2022-10-02T17:14:28.093Z,100.00
2022-10-02T17:19:44.234Z,100.00
2022-10-02T17:25:29.785Z,100.00
2022-10-02T17:30:53.011Z,100.00
2022-10-02T17:35:54.616Z,100.00
2022-10-02T17:41:10.950Z,100.00
2022-10-02T17:46:29.065Z,100.00
2022-10-02T17:51:52.817Z,100.00
2022-10-02T17:57:11.891Z,100.00
2022-10-02T18:02:25.912Z,100.00
2022-10-02T18:07:55.745Z,100.00
2022-10-02T18:13:26.989Z,100.00
2022-10-02T18:18:37.435Z,100.00
2022-10-02T18:24:05.188Z,100.00
2022-10-02T18:29:33.644Z,100.00
2022-10-02T18:34:54.107Z,100.00
2022-10-02T18:40:04.798Z,100.00
2022-10-02T18:45:27.279Z,100.00
2022-10-02T18:50:51.503Z,100.00
2022-10-02T18:56:08.229Z,100.00
2022-10-02T19:01:19.825Z,100.00
2022-10-02T19:06:41.581Z,100.00
2022-10-02T19:12:00.159Z,100.00
2022-10-02T19:17:11.915Z,100.00
2022-10-02T19:22:30.260Z,100.00
2022-10-02T19:27:35.505Z,100.00
2022-10-02T19:32:41.574Z,100.00
2022-10-02T19:37:45.886Z,100.00
2022-10-02T19:43:07.111Z,100.00
2022-10-02T19:48:10.894Z,100.00
2022-10-02T19:53:30.056Z,100.00
2022-10-02T19:58:52.131Z,100.00
2022-10-02T20:03:57.654Z,100.00
2022-10-02T20:09:03.327Z,100.00
2022-10-02T20:14:14.006Z,100.00
2022-10-02T20:19:23.754Z,100.00
2022-10-02T20:24:35.687Z,100.00
2022-10-02T20:29:46.786Z,100.00
2022-10-02T20:35:00.965Z,100.00
2022-10-02T20:40:16.413Z,100.00
2022-10-02T20:45:18.322Z,100.00
2022-10-02T20:50:55.390Z,100.00
2022-10-02T20:56:10.371Z,100.00
2022-10-02T21:01:19.851Z,100.00
2022-10-02T21:06:46.797Z,100.00
2022-10-02T21:12:07.213Z,100.00
2022-10-02T21:17:23.836Z,100.00
2022-10-02T21:22:57.903Z,100.00
2022-10-02T21:28:09.136Z,100.00
2022-10-02T21:33:19.195Z,100.00
2022-10-02T21:38:30.426Z,100.00
2022-10-02T21:44:01.705Z,100.00
2022-10-02T21:49:41.909Z,100.00
2022-10-02T21:55:02.278Z,100.00
2022-10-02T22:00:13.008Z,100.00
2022-10-02T22:05:33.324Z,100.00
2022-10-02T22:10:41.748Z,100.00
2022-10-02T22:15:52.426Z,100.00
2022-10-02T22:21:13.206Z,100.00
2022-10-02T22:26:41.863Z,100.00
2022-10-02T22:32:27.264Z,100.00
2022-10-02T22:37:46.344Z,100.00
2022-10-02T22:42:59.509Z,100.00
2022-10-02T22:48:05.045Z,100.00
2022-10-02T22:53:19.946Z,100.00
2022-10-02T22:58:35.735Z,100.00
2022-10-02T23:03:40.430Z,100.00
2022-10-02T23:08:51.120Z,100.00
2022-10-02T23:13:57.206Z,100.00
2022-10-02T23:19:22.503Z,100.00
2022-10-02T23:24:30.220Z,100.00
2022-10-02T23:29:52.700Z,100.00
2022-10-02T23:35:12.991Z,100.00
2022-10-02T23:40:45.276Z,100.00
2022-10-02T23:45:56.251Z,100.00
2022-10-02T23:51:14.543Z,100.00
2022-10-02T23:56:35.522Z,100.00
